Accueil
METAR-TAF:

METAR-TAF

Aéroports :

Montichiari

Brescia, Italie

latitude: 45-24-02N, longitude: 010-18-59E, altitude: 104 m

Observation

Le bulletin a été fait il y a 26 minutes, à 14:20 UTC
Vent 1 kt de direction variable
Température 24°C
Humidité 54%
Pression 1027 hPa
Visibilité 10 km ou plus

METAR: LIPO 061420Z AUTO VRB01KT 9999 NCD 24/14 Q1027

Heure: 16:46 (14:46 UTC)

Prévision

Le bulletin a été fait il y a 3 heures et 46 minutes, à 11:00 UTC
Prévision valable du 06 à 12 UTC au 07 à 12 UTC
Vent 5 kt de direction variable
Visibilité 10 km ou plus
Quelques nuages à une hauteur de 4000 ft
Temporairement
du 06 à 22 UTC au 07 à 06 UTC
Visibilité: 3000 m
brume

TAF: LIPO 061100Z 0612/0712 VRB05KT 9999 FEW040 TEMPO 0622/0706 3000 BR

Observations et prévisions météorologiques de plus de 4000 aéroports (messages METAR et TAF).

Les stations disponibles sont représentées par des disques jaunes et rouges sur la carte.

Passer la souris dessus pour voir le nom de la station.

Cliquer dessus pour voir les observations et prévisions météorologiques.

Pour changer de carte: cliquez sur les boutons verts avec une croix noire pour zoomer, sur le bouton vert avec un tiret pour effectuer un zoom arrière, ou sur les flèches vertes pour les cartes adjacentes.


METAR-TAF: